sensor_id;sensor_type;location;lat;lon;timestamp;P1;durP1;ratioP1;P2;durP2;ratioP2
11691;SDS011;33659;42.672;23.354;2022-09-13T00:01:31;4.45;;;2.92;;
11691;SDS011;33659;42.672;23.354;2022-09-13T00:03:57;6.03;;;2.78;;
11691;SDS011;33659;42.672;23.354;2022-09-13T00:06:24;3.03;;;2.72;;
11691;SDS011;33659;42.672;23.354;2022-09-13T00:08:51;3.35;;;3.05;;
11691;SDS011;33659;42.672;23.354;2022-09-13T00:11:21;3.65;;;2.92;;
11691;SDS011;33659;42.672;23.354;2022-09-13T00:13:49;7.07;;;2.95;;
11691;SDS011;33659;42.672;23.354;2022-09-13T00:16:17;3.78;;;2.90;;
11691;SDS011;33659;42.672;23.354;2022-09-13T00:18:46;3.08;;;2.78;;
11691;SDS011;33659;42.672;23.354;2022-09-13T00:21:14;3.50;;;3.20;;
11691;SDS011;33659;42.672;23.354;2022-09-13T00:23:42;3.47;;;3.17;;
11691;SDS011;33659;42.672;23.354;2022-09-13T00:26:10;4.72;;;3.25;;
11691;SDS011;33659;42.672;23.354;2022-09-13T00:28:40;3.17;;;2.78;;
11691;SDS011;33659;42.672;23.354;2022-09-13T00:31:07;3.88;;;3.15;;
11691;SDS011;33659;42.672;23.354;2022-09-13T00:33:34;3.60;;;2.90;;
11691;SDS011;33659;42.672;23.354;2022-09-13T00:36:04;3.08;;;2.78;;
11691;SDS011;33659;42.672;23.354;2022-09-13T00:38:33;5.30;;;2.90;;
11691;SDS011;33659;42.672;23.354;2022-09-13T00:41:00;5.13;;;3.00;;
11691;SDS011;33659;42.672;23.354;2022-09-13T00:43:41;3.60;;;3.08;;
11691;SDS011;33659;42.672;23.354;2022-09-13T00:46:12;3.92;;;3.20;;
11691;SDS011;33659;42.672;23.354;2022-09-13T00:48:45;3.85;;;3.53;;
11691;SDS011;33659;42.672;23.354;2022-09-13T00:51:13;3.47;;;2.90;;
11691;SDS011;33659;42.672;23.354;2022-09-13T00:53:40;3.90;;;3.50;;
11691;SDS011;33659;42.672;23.354;2022-09-13T00:56:13;3.38;;;3.03;;
11691;SDS011;33659;42.672;23.354;2022-09-13T00:58:45;4.50;;;3.25;;
11691;SDS011;33659;42.672;23.354;2022-09-13T01:01:15;3.78;;;3.42;;
11691;SDS011;33659;42.672;23.354;2022-09-13T01:03:44;3.72;;;3.13;;
11691;SDS011;33659;42.672;23.354;2022-09-13T01:06:13;4.88;;;3.08;;
11691;SDS011;33659;42.672;23.354;2022-09-13T01:08:43;3.22;;;2.92;;
11691;SDS011;33659;42.672;23.354;2022-09-13T01:11:15;4.63;;;2.90;;
11691;SDS011;33659;42.672;23.354;2022-09-13T01:13:47;4.78;;;3.75;;
11691;SDS011;33659;42.672;23.354;2022-09-13T01:16:15;3.60;;;3.30;;
11691;SDS011;33659;42.672;23.354;2022-09-13T01:18:42;3.50;;;3.20;;
11691;SDS011;33659;42.672;23.354;2022-09-13T01:21:20;3.50;;;3.20;;
11691;SDS011;33659;42.672;23.354;2022-09-13T01:24:15;7.47;;;3.33;;
11691;SDS011;33659;42.672;23.354;2022-09-13T01:27:05;3.67;;;3.15;;
11691;SDS011;33659;42.672;23.354;2022-09-13T01:30:05;3.72;;;3.42;;
11691;SDS011;33659;42.672;23.354;2022-09-13T01:32:40;6.15;;;3.30;;
11691;SDS011;33659;42.672;23.354;2022-09-13T01:35:25;5.20;;;3.05;;
11691;SDS011;33659;42.672;23.354;2022-09-13T01:38:02;4.20;;;2.60;;
11691;SDS011;33659;42.672;23.354;2022-09-13T01:40:43;5.72;;;2.83;;
11691;SDS011;33659;42.672;23.354;2022-09-13T01:43:26;5.18;;;3.10;;
11691;SDS011;33659;42.672;23.354;2022-09-13T01:46:07;6.50;;;3.17;;
11691;SDS011;33659;42.672;23.354;2022-09-13T01:48:42;3.63;;;2.90;;
11691;SDS011;33659;42.672;23.354;2022-09-13T01:51:21;3.95;;;3.05;;
11691;SDS011;33659;42.672;23.354;2022-09-13T01:53:54;3.95;;;3.20;;
11691;SDS011;33659;42.672;23.354;2022-09-13T01:56:31;3.58;;;2.80;;
11691;SDS011;33659;42.672;23.354;2022-09-13T01:59:04;4.97;;;3.10;;
11691;SDS011;33659;42.672;23.354;2022-09-13T02:01:39;6.05;;;3.03;;
11691;SDS011;33659;42.672;23.354;2022-09-13T02:04:12;3.20;;;2.70;;
11691;SDS011;33659;42.672;23.354;2022-09-13T02:06:44;4.68;;;3.35;;
11691;SDS011;33659;42.672;23.354;2022-09-13T02:09:16;3.53;;;3.10;;
11691;SDS011;33659;42.672;23.354;2022-09-13T02:11:47;3.35;;;3.05;;
11691;SDS011;33659;42.672;23.354;2022-09-13T02:14:19;3.30;;;2.85;;
11691;SDS011;33659;42.672;23.354;2022-09-13T02:16:51;3.17;;;2.97;;
11691;SDS011;33659;42.672;23.354;2022-09-13T02:19:23;3.20;;;2.90;;
11691;SDS011;33659;42.672;23.354;2022-09-13T02:21:58;5.20;;;3.30;;
11691;SDS011;33659;42.672;23.354;2022-09-13T02:24:28;3.00;;;2.70;;
11691;SDS011;33659;42.672;23.354;2022-09-13T02:26:58;3.45;;;2.70;;
11691;SDS011;33659;42.672;23.354;2022-09-13T02:29:28;4.40;;;3.40;;
11691;SDS011;33659;42.672;23.354;2022-09-13T02:32:01;3.97;;;3.33;;
11691;SDS011;33659;42.672;23.354;2022-09-13T02:34:35;4.85;;;2.83;;
11691;SDS011;33659;42.672;23.354;2022-09-13T02:37:05;3.63;;;3.33;;
11691;SDS011;33659;42.672;23.354;2022-09-13T02:39:39;7.38;;;3.40;;
11691;SDS011;33659;42.672;23.354;2022-09-13T02:42:09;4.38;;;3.45;;
11691;SDS011;33659;42.672;23.354;2022-09-13T02:44:42;3.50;;;3.20;;
11691;SDS011;33659;42.672;23.354;2022-09-13T02:47:27;3.53;;;3.22;;
11691;SDS011;33659;42.672;23.354;2022-09-13T02:50:02;4.07;;;2.97;;
11691;SDS011;33659;42.672;23.354;2022-09-13T02:52:48;3.35;;;2.75;;
11691;SDS011;33659;42.672;23.354;2022-09-13T02:55:23;3.08;;;2.78;;
11691;SDS011;33659;42.672;23.354;2022-09-13T02:57:58;3.78;;;3.40;;
11691;SDS011;33659;42.672;23.354;2022-09-13T03:00:29;5.70;;;3.38;;
11691;SDS011;33659;42.672;23.354;2022-09-13T03:02:58;3.25;;;2.95;;
11691;SDS011;33659;42.672;23.354;2022-09-13T03:05:29;6.47;;;3.25;;
11691;SDS011;33659;42.672;23.354;2022-09-13T03:07:56;4.18;;;3.33;;
11691;SDS011;33659;42.672;23.354;2022-09-13T03:10:24;3.05;;;2.75;;
11691;SDS011;33659;42.672;23.354;2022-09-13T03:13:08;3.17;;;2.85;;
11691;SDS011;33659;42.672;23.354;2022-09-13T03:15:50;7.72;;;3.45;;
11691;SDS011;33659;42.672;23.354;2022-09-13T03:18:34;3.53;;;2.58;;
11691;SDS011;33659;42.672;23.354;2022-09-13T03:21:10;5.82;;;2.85;;
11691;SDS011;33659;42.672;23.354;2022-09-13T03:23:48;5.25;;;3.45;;
11691;SDS011;33659;42.672;23.354;2022-09-13T03:26:27;3.63;;;3.10;;
11691;SDS011;33659;42.672;23.354;2022-09-13T03:29:09;3.00;;;2.67;;
11691;SDS011;33659;42.672;23.354;2022-09-13T03:31:48;5.90;;;3.22;;
11691;SDS011;33659;42.672;23.354;2022-09-13T03:34:21;3.00;;;2.80;;
11691;SDS011;33659;42.672;23.354;2022-09-13T03:36:56;2.83;;;2.58;;
11691;SDS011;33659;42.672;23.354;2022-09-13T03:39:30;4.35;;;2.97;;
11691;SDS011;33659;42.672;23.354;2022-09-13T03:42:03;3.45;;;3.15;;
11691;SDS011;33659;42.672;23.354;2022-09-13T03:44:39;3.35;;;3.05;;
11691;SDS011;33659;42.672;23.354;2022-09-13T03:47:11;3.53;;;2.70;;
11691;SDS011;33659;42.672;23.354;2022-09-13T03:49:41;3.67;;;2.70;;
11691;SDS011;33659;42.672;23.354;2022-09-13T03:52:08;4.80;;;2.90;;
11691;SDS011;33659;42.672;23.354;2022-09-13T03:54:36;3.92;;;2.85;;
11691;SDS011;33659;42.672;23.354;2022-09-13T03:57:10;3.55;;;3.05;;
11691;SDS011;33659;42.672;23.354;2022-09-13T03:59:40;5.18;;;3.40;;
11691;SDS011;33659;42.672;23.354;2022-09-13T04:02:11;3.78;;;3.28;;
11691;SDS011;33659;42.672;23.354;2022-09-13T04:04:38;6.72;;;3.70;;
11691;SDS011;33659;42.672;23.354;2022-09-13T04:07:07;4.13;;;3.40;;
11691;SDS011;33659;42.672;23.354;2022-09-13T04:09:35;3.25;;;3.03;;
11691;SDS011;33659;42.672;23.354;2022-09-13T04:12:02;5.70;;;2.90;;
11691;SDS011;33659;42.672;23.354;2022-09-13T04:14:29;5.13;;;3.17;;
11691;SDS011;33659;42.672;23.354;2022-09-13T04:16:56;4.65;;;3.22;;
11691;SDS011;33659;42.672;23.354;2022-09-13T04:19:23;3.40;;;3.10;;
11691;SDS011;33659;42.672;23.354;2022-09-13T04:21:51;3.63;;;3.33;;
11691;SDS011;33659;42.672;23.354;2022-09-13T04:24:23;4.50;;;3.05;;
11691;SDS011;33659;42.672;23.354;2022-09-13T04:26:50;3.42;;;3.10;;
11691;SDS011;33659;42.672;23.354;2022-09-13T04:29:18;3.65;;;3.28;;
11691;SDS011;33659;42.672;23.354;2022-09-13T04:31:46;3.78;;;3.08;;
11691;SDS011;33659;42.672;23.354;2022-09-13T04:34:13;4.53;;;3.10;;
11691;SDS011;33659;42.672;23.354;2022-09-13T04:36:42;3.47;;;3.17;;
11691;SDS011;33659;42.672;23.354;2022-09-13T04:39:09;3.38;;;2.88;;
11691;SDS011;33659;42.672;23.354;2022-09-13T04:41:39;4.38;;;3.00;;
11691;SDS011;33659;42.672;23.354;2022-09-13T04:44:06;4.43;;;3.42;;
11691;SDS011;33659;42.672;23.354;2022-09-13T04:46:33;4.82;;;3.17;;
11691;SDS011;33659;42.672;23.354;2022-09-13T04:49:00;8.15;;;2.78;;
11691;SDS011;33659;42.672;23.354;2022-09-13T04:51:27;4.88;;;2.83;;
11691;SDS011;33659;42.672;23.354;2022-09-13T04:53:54;5.20;;;2.88;;
11691;SDS011;33659;42.672;23.354;2022-09-13T04:56:21;3.22;;;2.80;;
11691;SDS011;33659;42.672;23.354;2022-09-13T04:58:51;4.28;;;3.08;;
11691;SDS011;33659;42.672;23.354;2022-09-13T05:01:19;2.92;;;2.60;;
11691;SDS011;33659;42.672;23.354;2022-09-13T05:03:46;3.17;;;2.88;;
11691;SDS011;33659;42.672;23.354;2022-09-13T05:06:14;3.55;;;2.90;;
11691;SDS011;33659;42.672;23.354;2022-09-13T05:08:42;5.22;;;2.72;;
11691;SDS011;33659;42.672;23.354;2022-09-13T05:11:10;5.07;;;3.00;;
11691;SDS011;33659;42.672;23.354;2022-09-13T05:13:36;3.35;;;2.83;;
11691;SDS011;33659;42.672;23.354;2022-09-13T05:16:05;4.10;;;3.05;;
11691;SDS011;33659;42.672;23.354;2022-09-13T05:18:34;5.35;;;3.25;;
11691;SDS011;33659;42.672;23.354;2022-09-13T05:21:03;4.32;;;3.00;;
11691;SDS011;33659;42.672;23.354;2022-09-13T05:23:30;5.95;;;2.58;;
11691;SDS011;33659;42.672;23.354;2022-09-13T05:25:57;6.03;;;2.72;;
11691;SDS011;33659;42.672;23.354;2022-09-13T05:28:25;3.00;;;2.70;;
11691;SDS011;33659;42.672;23.354;2022-09-13T05:30:54;4.75;;;2.85;;
11691;SDS011;33659;42.672;23.354;2022-09-13T05:33:23;3.35;;;3.05;;
11691;SDS011;33659;42.672;23.354;2022-09-13T05:35:50;4.25;;;3.13;;
11691;SDS011;33659;42.672;23.354;2022-09-13T05:38:17;4.57;;;3.42;;
11691;SDS011;33659;42.672;23.354;2022-09-13T05:40:44;5.97;;;2.83;;
11691;SDS011;33659;42.672;23.354;2022-09-13T05:43:11;3.55;;;3.25;;
11691;SDS011;33659;42.672;23.354;2022-09-13T05:45:38;4.00;;;2.45;;
11691;SDS011;33659;42.672;23.354;2022-09-13T05:48:05;4.85;;;2.88;;
11691;SDS011;33659;42.672;23.354;2022-09-13T05:50:36;6.65;;;2.55;;
11691;SDS011;33659;42.672;23.354;2022-09-13T05:53:03;7.38;;;2.75;;
11691;SDS011;33659;42.672;23.354;2022-09-13T05:55:30;3.03;;;2.45;;
11691;SDS011;33659;42.672;23.354;2022-09-13T05:57:58;8.55;;;3.05;;
11691;SDS011;33659;42.672;23.354;2022-09-13T06:00:26;4.38;;;2.65;;
11691;SDS011;33659;42.672;23.354;2022-09-13T06:02:53;3.08;;;2.70;;
11691;SDS011;33659;42.672;23.354;2022-09-13T06:05:21;3.15;;;2.65;;
11691;SDS011;33659;42.672;23.354;2022-09-13T06:07:49;2.83;;;2.50;;
11691;SDS011;33659;42.672;23.354;2022-09-13T06:10:15;2.67;;;2.45;;
11691;SDS011;33659;42.672;23.354;2022-09-13T06:12:42;2.95;;;2.65;;
11691;SDS011;33659;42.672;23.354;2022-09-13T06:15:09;4.72;;;2.95;;
11691;SDS011;33659;42.672;23.354;2022-09-13T06:17:36;3.63;;;2.67;;
11691;SDS011;33659;42.672;23.354;2022-09-13T06:20:03;4.05;;;3.05;;
11691;SDS011;33659;42.672;23.354;2022-09-13T06:22:30;2.90;;;2.58;;
11691;SDS011;33659;42.672;23.354;2022-09-13T06:25:00;3.00;;;2.70;;
11691;SDS011;33659;42.672;23.354;2022-09-13T06:27:28;3.28;;;2.28;;
11691;SDS011;33659;42.672;23.354;2022-09-13T06:29:55;2.67;;;2.47;;
11691;SDS011;33659;42.672;23.354;2022-09-13T06:32:22;2.55;;;2.35;;
11691;SDS011;33659;42.672;23.354;2022-09-13T06:34:50;3.25;;;2.97;;
11691;SDS011;33659;42.672;23.354;2022-09-13T06:37:17;3.70;;;2.75;;
11691;SDS011;33659;42.672;23.354;2022-09-13T06:39:43;3.35;;;3.05;;
11691;SDS011;33659;42.672;23.354;2022-09-13T06:42:12;3.47;;;3.00;;
11691;SDS011;33659;42.672;23.354;2022-09-13T06:44:38;4.90;;;2.45;;
11691;SDS011;33659;42.672;23.354;2022-09-13T06:47:05;2.50;;;2.30;;
11691;SDS011;33659;42.672;23.354;2022-09-13T06:49:32;5.13;;;3.30;;
11691;SDS011;33659;42.672;23.354;2022-09-13T06:51:58;3.30;;;3.00;;
11691;SDS011;33659;42.672;23.354;2022-09-13T06:54:25;4.53;;;2.65;;
11691;SDS011;33659;42.672;23.354;2022-09-13T06:56:52;2.95;;;2.40;;
11691;SDS011;33659;42.672;23.354;2022-09-13T06:59:20;3.03;;;2.72;;
11691;SDS011;33659;42.672;23.354;2022-09-13T07:01:47;2.63;;;2.42;;
11691;SDS011;33659;42.672;23.354;2022-09-13T07:04:14;5.10;;;3.33;;
11691;SDS011;33659;42.672;23.354;2022-09-13T07:06:44;3.72;;;2.70;;
11691;SDS011;33659;42.672;23.354;2022-09-13T07:09:13;2.80;;;2.50;;
11691;SDS011;33659;42.672;23.354;2022-09-13T07:11:41;2.92;;;2.70;;
11691;SDS011;33659;42.672;23.354;2022-09-13T07:14:10;2.40;;;2.20;;
11691;SDS011;33659;42.672;23.354;2022-09-13T07:16:40;5.97;;;2.50;;
11691;SDS011;33659;42.672;23.354;2022-09-13T07:19:11;3.97;;;2.67;;
11691;SDS011;33659;42.672;23.354;2022-09-13T07:21:39;2.92;;;2.63;;
11691;SDS011;33659;42.672;23.354;2022-09-13T07:24:06;3.00;;;2.65;;
11691;SDS011;33659;42.672;23.354;2022-09-13T07:26:33;4.55;;;3.05;;
11691;SDS011;33659;42.672;23.354;2022-09-13T07:29:00;2.65;;;2.42;;
11691;SDS011;33659;42.672;23.354;2022-09-13T07:31:30;3.08;;;2.38;;
11691;SDS011;33659;42.672;23.354;2022-09-13T07:33:59;2.67;;;2.47;;
11691;SDS011;33659;42.672;23.354;2022-09-13T07:36:28;2.90;;;2.30;;
11691;SDS011;33659;42.672;23.354;2022-09-13T07:38:57;2.90;;;2.53;;
11691;SDS011;33659;42.672;23.354;2022-09-13T07:41:25;2.05;;;1.90;;
11691;SDS011;33659;42.672;23.354;2022-09-13T07:43:52;2.70;;;2.50;;
11691;SDS011;33659;42.672;23.354;2022-09-13T07:46:20;2.40;;;2.17;;
11691;SDS011;33659;42.672;23.354;2022-09-13T07:48:50;3.17;;;2.45;;
11691;SDS011;33659;42.672;23.354;2022-09-13T07:51:20;2.55;;;2.35;;
11691;SDS011;33659;42.672;23.354;2022-09-13T07:53:48;4.47;;;2.53;;
11691;SDS011;33659;42.672;23.354;2022-09-13T07:56:16;7.53;;;2.50;;
11691;SDS011;33659;42.672;23.354;2022-09-13T07:58:45;2.28;;;2.08;;
11691;SDS011;33659;42.672;23.354;2022-09-13T08:01:13;2.42;;;2.22;;
11691;SDS011;33659;42.672;23.354;2022-09-13T08:03:43;2.67;;;2.40;;
11691;SDS011;33659;42.672;23.354;2022-09-13T08:06:15;2.30;;;2.10;;
11691;SDS011;33659;42.672;23.354;2022-09-13T08:08:43;2.50;;;2.30;;
11691;SDS011;33659;42.672;23.354;2022-09-13T08:11:11;3.22;;;1.98;;
11691;SDS011;33659;42.672;23.354;2022-09-13T08:13:41;2.55;;;2.20;;
11691;SDS011;33659;42.672;23.354;2022-09-13T08:16:07;2.25;;;2.00;;
11691;SDS011;33659;42.672;23.354;2022-09-13T08:18:34;2.45;;;2.25;;
11691;SDS011;33659;42.672;23.354;2022-09-13T08:21:01;2.17;;;1.98;;
11691;SDS011;33659;42.672;23.354;2022-09-13T08:23:28;2.28;;;2.08;;
11691;SDS011;33659;42.672;23.354;2022-09-13T08:26:00;2.53;;;2.20;;
11691;SDS011;33659;42.672;23.354;2022-09-13T08:28:28;3.90;;;2.10;;
11691;SDS011;33659;42.672;23.354;2022-09-13T08:30:55;2.10;;;1.90;;
11691;SDS011;33659;42.672;23.354;2022-09-13T08:33:27;2.03;;;1.65;;
11691;SDS011;33659;42.672;23.354;2022-09-13T08:35:54;2.60;;;2.03;;
11691;SDS011;33659;42.672;23.354;2022-09-13T08:38:22;2.17;;;1.98;;
11691;SDS011;33659;42.672;23.354;2022-09-13T08:40:50;2.22;;;1.90;;
11691;SDS011;33659;42.672;23.354;2022-09-13T08:43:26;1.98;;;1.85;;
11691;SDS011;33659;42.672;23.354;2022-09-13T08:46:09;2.25;;;2.08;;
11691;SDS011;33659;42.672;23.354;2022-09-13T08:48:42;2.20;;;2.00;;
11691;SDS011;33659;42.672;23.354;2022-09-13T08:51:20;2.38;;;2.17;;
11691;SDS011;33659;42.672;23.354;2022-09-13T08:53:53;2.35;;;2.15;;
11691;SDS011;33659;42.672;23.354;2022-09-13T08:56:22;2.35;;;2.15;;
11691;SDS011;33659;42.672;23.354;2022-09-13T09:01:53;1.77;;;1.65;;
11691;SDS011;33659;42.672;23.354;2022-09-13T09:04:31;2.17;;;1.98;;
11691;SDS011;33659;42.672;23.354;2022-09-13T09:07:03;1.70;;;1.60;;
11691;SDS011;33659;42.672;23.354;2022-09-13T09:09:36;1.67;;;1.58;;
11691;SDS011;33659;42.672;23.354;2022-09-13T09:12:10;2.47;;;1.73;;
11691;SDS011;33659;42.672;23.354;2022-09-13T09:14:44;1.45;;;1.35;;
11691;SDS011;33659;42.672;23.354;2022-09-13T09:17:17;3.90;;;1.70;;
11691;SDS011;33659;42.672;23.354;2022-09-13T09:19:51;2.05;;;1.67;;
11691;SDS011;33659;42.672;23.354;2022-09-13T09:22:21;2.00;;;1.90;;
11691;SDS011;33659;42.672;23.354;2022-09-13T09:24:53;1.92;;;1.63;;
11691;SDS011;33659;42.672;23.354;2022-09-13T09:27:22;2.50;;;1.80;;
11691;SDS011;33659;42.672;23.354;2022-09-13T09:29:51;1.70;;;1.60;;
11691;SDS011;33659;42.672;23.354;2022-09-13T09:32:27;3.58;;;2.00;;
11691;SDS011;33659;42.672;23.354;2022-09-13T09:35:09;1.90;;;1.70;;
11691;SDS011;33659;42.672;23.354;2022-09-13T09:37:42;5.88;;;1.83;;
11691;SDS011;33659;42.672;23.354;2022-09-13T09:40:15;1.90;;;1.73;;
11691;SDS011;33659;42.672;23.354;2022-09-13T09:42:43;2.30;;;2.08;;
11691;SDS011;33659;42.672;23.354;2022-09-13T09:45:22;2.28;;;1.83;;
11691;SDS011;33659;42.672;23.354;2022-09-13T09:47:51;1.50;;;1.40;;
11691;SDS011;33659;42.672;23.354;2022-09-13T09:50:21;1.80;;;1.70;;
11691;SDS011;33659;42.672;23.354;2022-09-13T09:52:51;3.05;;;1.80;;
11691;SDS011;33659;42.672;23.354;2022-09-13T09:55:25;2.42;;;1.90;;
11691;SDS011;33659;42.672;23.354;2022-09-13T09:57:54;2.25;;;1.63;;
11691;SDS011;33659;42.672;23.354;2022-09-13T10:00:24;1.88;;;1.58;;
11691;SDS011;33659;42.672;23.354;2022-09-13T10:02:53;3.95;;;1.90;;
11691;SDS011;33659;42.672;23.354;2022-09-13T10:05:23;2.28;;;1.40;;
11691;SDS011;33659;42.672;23.354;2022-09-13T10:07:56;1.67;;;1.55;;
11691;SDS011;33659;42.672;23.354;2022-09-13T10:10:28;1.77;;;1.67;;
11691;SDS011;33659;42.672;23.354;2022-09-13T10:13:02;3.20;;;1.83;;
11691;SDS011;33659;42.672;23.354;2022-09-13T10:15:33;1.50;;;1.40;;
11691;SDS011;33659;42.672;23.354;2022-09-13T10:18:01;4.65;;;1.83;;
11691;SDS011;33659;42.672;23.354;2022-09-13T10:20:40;3.08;;;2.20;;
11691;SDS011;33659;42.672;23.354;2022-09-13T10:23:09;5.13;;;2.05;;
11691;SDS011;33659;42.672;23.354;2022-09-13T10:25:37;3.40;;;1.85;;
11691;SDS011;33659;42.672;23.354;2022-09-13T10:28:06;1.48;;;1.38;;
11691;SDS011;33659;42.672;23.354;2022-09-13T10:30:39;2.58;;;2.38;;
11691;SDS011;33659;42.672;23.354;2022-09-13T10:33:15;3.25;;;1.90;;
11691;SDS011;33659;42.672;23.354;2022-09-13T10:35:49;1.83;;;1.73;;
11691;SDS011;33659;42.672;23.354;2022-09-13T10:38:23;2.50;;;1.90;;
11691;SDS011;33659;42.672;23.354;2022-09-13T10:40:57;2.00;;;1.80;;
11691;SDS011;33659;42.672;23.354;2022-09-13T10:43:26;2.03;;;1.70;;
11691;SDS011;33659;42.672;23.354;2022-09-13T10:45:56;2.00;;;1.80;;
11691;SDS011;33659;42.672;23.354;2022-09-13T10:48:24;2.35;;;1.98;;
11691;SDS011;33659;42.672;23.354;2022-09-13T10:51:02;2.35;;;2.15;;
11691;SDS011;33659;42.672;23.354;2022-09-13T10:53:33;2.20;;;1.80;;
11691;SDS011;33659;42.672;23.354;2022-09-13T10:56:02;2.78;;;2.20;;
11691;SDS011;33659;42.672;23.354;2022-09-13T10:58:30;1.90;;;1.80;;
11691;SDS011;33659;42.672;23.354;2022-09-13T11:07:20;3.67;;;2.03;;
11691;SDS011;33659;42.672;23.354;2022-09-13T11:10:06;2.25;;;1.80;;
11691;SDS011;33659;42.672;23.354;2022-09-13T11:12:43;2.50;;;1.88;;
11691;SDS011;33659;42.672;23.354;2022-09-13T11:15:19;1.83;;;1.73;;
11691;SDS011;33659;42.672;23.354;2022-09-13T11:18:11;1.85;;;1.75;;
11691;SDS011;33659;42.672;23.354;2022-09-13T11:21:09;2.00;;;1.80;;
11691;SDS011;33659;42.672;23.354;2022-09-13T11:26:53;1.60;;;1.50;;
11691;SDS011;33659;42.672;23.354;2022-09-13T11:29:29;2.35;;;1.80;;
11691;SDS011;33659;42.672;23.354;2022-09-13T11:32:11;1.50;;;1.40;;
11691;SDS011;33659;42.672;23.354;2022-09-13T11:34:51;2.00;;;1.75;;
11691;SDS011;33659;42.672;23.354;2022-09-13T11:37:39;1.77;;;1.67;;
11691;SDS011;33659;42.672;23.354;2022-09-13T11:40:20;1.92;;;1.60;;
11691;SDS011;33659;42.672;23.354;2022-09-13T11:42:56;1.70;;;1.60;;
11691;SDS011;33659;42.672;23.354;2022-09-13T11:45:37;2.38;;;2.05;;
11691;SDS011;33659;42.672;23.354;2022-09-13T11:48:20;1.63;;;1.52;;
11691;SDS011;33659;42.672;23.354;2022-09-13T11:51:02;1.98;;;1.88;;
11691;SDS011;33659;42.672;23.354;2022-09-13T11:53:41;2.75;;;1.63;;
11691;SDS011;33659;42.672;23.354;2022-09-13T11:56:18;1.67;;;1.58;;
11691;SDS011;33659;42.672;23.354;2022-09-13T11:58:49;1.50;;;1.40;;
11691;SDS011;33659;42.672;23.354;2022-09-13T12:01:19;1.50;;;1.30;;
11691;SDS011;33659;42.672;23.354;2022-09-13T12:03:51;1.60;;;1.38;;
11691;SDS011;33659;42.672;23.354;2022-09-13T12:06:27;1.77;;;1.63;;
11691;SDS011;33659;42.672;23.354;2022-09-13T12:09:00;1.50;;;1.42;;
11691;SDS011;33659;42.672;23.354;2022-09-13T12:11:32;2.20;;;1.90;;
11691;SDS011;33659;42.672;23.354;2022-09-13T12:14:02;2.03;;;1.92;;
11691;SDS011;33659;42.672;23.354;2022-09-13T12:16:32;1.52;;;1.42;;
11691;SDS011;33659;42.672;23.354;2022-09-13T12:19:04;2.65;;;1.77;;
11691;SDS011;33659;42.672;23.354;2022-09-13T12:21:38;1.70;;;1.60;;
11691;SDS011;33659;42.672;23.354;2022-09-13T12:24:12;1.40;;;1.25;;
11691;SDS011;33659;42.672;23.354;2022-09-13T12:26:43;4.20;;;1.40;;
11691;SDS011;33659;42.672;23.354;2022-09-13T12:29:16;3.13;;;1.60;;
11691;SDS011;33659;42.672;23.354;2022-09-13T12:31:49;2.45;;;1.33;;
11691;SDS011;33659;42.672;23.354;2022-09-13T12:34:16;1.50;;;1.40;;
11691;SDS011;33659;42.672;23.354;2022-09-13T12:36:54;1.25;;;1.25;;
11691;SDS011;33659;42.672;23.354;2022-09-13T12:39:37;1.65;;;1.55;;
11691;SDS011;33659;42.672;23.354;2022-09-13T12:42:16;1.83;;;1.20;;
11691;SDS011;33659;42.672;23.354;2022-09-13T12:45:01;1.80;;;1.70;;
11691;SDS011;33659;42.672;23.354;2022-09-13T12:47:45;1.23;;;1.23;;
11691;SDS011;33659;42.672;23.354;2022-09-13T12:50:33;4.28;;;1.70;;
11691;SDS011;33659;42.672;23.354;2022-09-13T12:53:28;2.28;;;1.55;;
11691;SDS011;33659;42.672;23.354;2022-09-13T12:56:18;3.40;;;1.77;;
11691;SDS011;33659;42.672;23.354;2022-09-13T12:59:18;1.40;;;1.30;;
11691;SDS011;33659;42.672;23.354;2022-09-13T13:01:54;2.85;;;1.60;;
11691;SDS011;33659;42.672;23.354;2022-09-13T13:04:23;1.60;;;1.50;;
11691;SDS011;33659;42.672;23.354;2022-09-13T13:06:55;3.83;;;1.25;;
11691;SDS011;33659;42.672;23.354;2022-09-13T13:09:27;2.45;;;1.40;;
11691;SDS011;33659;42.672;23.354;2022-09-13T13:12:05;1.48;;;1.38;;
11691;SDS011;33659;42.672;23.354;2022-09-13T13:14:43;3.47;;;1.65;;
11691;SDS011;33659;42.672;23.354;2022-09-13T13:26:04;1.52;;;1.42;;
11691;SDS011;33659;42.672;23.354;2022-09-13T13:28:47;4.68;;;1.73;;
11691;SDS011;33659;42.672;23.354;2022-09-13T13:31:32;1.60;;;1.50;;
11691;SDS011;33659;42.672;23.354;2022-09-13T13:34:01;1.70;;;1.60;;
11691;SDS011;33659;42.672;23.354;2022-09-13T13:36:49;2.10;;;2.00;;
11691;SDS011;33659;42.672;23.354;2022-09-13T13:39:31;1.60;;;1.50;;
11691;SDS011;33659;42.672;23.354;2022-09-13T13:42:02;4.15;;;1.90;;
11691;SDS011;33659;42.672;23.354;2022-09-13T13:53:40;2.13;;;1.65;;
11691;SDS011;33659;42.672;23.354;2022-09-13T13:56:16;1.77;;;1.67;;
11691;SDS011;33659;42.672;23.354;2022-09-13T13:58:49;1.60;;;1.50;;
11691;SDS011;33659;42.672;23.354;2022-09-13T14:01:22;1.60;;;1.50;;
11691;SDS011;33659;42.672;23.354;2022-09-13T14:04:04;3.25;;;1.85;;
11691;SDS011;33659;42.672;23.354;2022-09-13T14:06:52;2.15;;;1.95;;
11691;SDS011;33659;42.672;23.354;2022-09-13T14:09:30;2.70;;;2.03;;
11691;SDS011;33659;42.672;23.354;2022-09-13T14:12:14;2.40;;;2.05;;
11691;SDS011;33659;42.672;23.354;2022-09-13T14:14:54;3.13;;;1.65;;
11691;SDS011;33659;42.672;23.354;2022-09-13T14:17:32;1.90;;;1.75;;
11691;SDS011;33659;42.672;23.354;2022-09-13T14:20:16;4.32;;;2.00;;
11691;SDS011;33659;42.672;23.354;2022-09-13T14:22:46;1.90;;;1.70;;
11691;SDS011;33659;42.672;23.354;2022-09-13T14:25:14;2.65;;;1.50;;
11691;SDS011;33659;42.672;23.354;2022-09-13T14:27:48;2.13;;;1.80;;
11691;SDS011;33659;42.672;23.354;2022-09-13T14:30:20;1.63;;;1.52;;
11691;SDS011;33659;42.672;23.354;2022-09-13T14:32:52;2.00;;;1.70;;
11691;SDS011;33659;42.672;23.354;2022-09-13T14:35:23;1.90;;;1.77;;
11691;SDS011;33659;42.672;23.354;2022-09-13T14:37:52;4.47;;;1.67;;
11691;SDS011;33659;42.672;23.354;2022-09-13T14:40:21;2.88;;;1.77;;
11691;SDS011;33659;42.672;23.354;2022-09-13T14:42:51;2.20;;;2.00;;
11691;SDS011;33659;42.672;23.354;2022-09-13T14:45:22;1.83;;;1.73;;
11691;SDS011;33659;42.672;23.354;2022-09-13T14:47:53;2.20;;;2.00;;
11691;SDS011;33659;42.672;23.354;2022-09-13T14:50:26;1.95;;;1.58;;
11691;SDS011;33659;42.672;23.354;2022-09-13T14:52:57;4.53;;;2.03;;
11691;SDS011;33659;42.672;23.354;2022-09-13T14:55:29;1.70;;;1.60;;
11691;SDS011;33659;42.672;23.354;2022-09-13T14:57:59;5.07;;;1.80;;
11691;SDS011;33659;42.672;23.354;2022-09-13T15:00:32;2.22;;;2.03;;
11691;SDS011;33659;42.672;23.354;2022-09-13T15:03:12;2.83;;;1.80;;
11691;SDS011;33659;42.672;23.354;2022-09-13T15:05:48;2.15;;;1.95;;
11691;SDS011;33659;42.672;23.354;2022-09-13T15:08:26;2.05;;;1.80;;
11691;SDS011;33659;42.672;23.354;2022-09-13T15:11:10;1.80;;;1.70;;
11691;SDS011;33659;42.672;23.354;2022-09-13T15:13:39;1.80;;;1.70;;
11691;SDS011;33659;42.672;23.354;2022-09-13T15:21:52;2.08;;;1.90;;
11691;SDS011;33659;42.672;23.354;2022-09-13T15:24:28;1.45;;;1.35;;
11691;SDS011;33659;42.672;23.354;2022-09-13T15:27:00;1.48;;;1.38;;
11691;SDS011;33659;42.672;23.354;2022-09-13T15:29:28;3.20;;;1.63;;
11691;SDS011;33659;42.672;23.354;2022-09-13T15:32:00;1.90;;;1.60;;
11691;SDS011;33659;42.672;23.354;2022-09-13T15:34:27;2.40;;;1.90;;
11691;SDS011;33659;42.672;23.354;2022-09-13T15:37:07;2.42;;;2.22;;
11691;SDS011;33659;42.672;23.354;2022-09-13T15:39:46;2.85;;;2.00;;